createdAt,value
2023-01-25T01:06:23.448Z,101883.80
2023-01-25T01:07:34.528Z,101875.88
2023-01-25T01:08:45.138Z,101891.77
2023-01-25T01:09:53.649Z,101890.92
2023-01-25T01:11:05.174Z,101887.44
2023-01-25T01:12:14.787Z,101881.33
2023-01-25T01:13:24.392Z,101888.44
2023-01-25T01:15:29.855Z,101874.38
2023-01-25T01:16:39.079Z,101878.82
2023-01-25T01:17:47.953Z,101870.89
2023-01-25T01:18:58.724Z,101877.95
2023-01-25T01:21:25.504Z,101884.98
2023-01-25T01:22:35.123Z,101880.55
2023-01-25T01:23:45.314Z,101884.95
2023-01-25T01:24:54.356Z,101884.93
2023-01-25T01:26:07.535Z,101879.60
2023-01-25T01:27:16.588Z,101877.86
2023-01-25T01:28:25.532Z,101882.29
2023-01-25T01:29:35.775Z,101890.23
2023-01-25T01:30:45.410Z,101879.66
2023-01-25T01:31:56.932Z,101882.33
2023-01-25T01:33:08.393Z,101886.73
2023-01-25T01:34:19.473Z,101885.88
2023-01-25T01:35:32.401Z,101881.47
2023-01-25T01:37:58.635Z,101867.33
2023-01-25T01:39:09.015Z,101875.28
2023-01-25T01:40:21.711Z,101876.19
2023-01-25T01:41:31.863Z,101876.16
2023-01-25T01:43:05.770Z,101870.00
2023-01-25T01:44:23.186Z,101872.65
2023-01-25T01:45:53.162Z,101880.60
2023-01-25T01:47:05.450Z,101873.55
2023-01-25T01:51:50.580Z,101876.19
2023-01-25T01:53:02.445Z,101872.65
2023-01-25T01:54:33.157Z,101869.11
2023-01-25T01:57:02.786Z,101868.26
2023-01-25T01:58:12.277Z,101868.25
2023-01-25T02:00:42.256Z,101870.02
2023-01-25T02:01:51.325Z,101875.30
2023-01-25T02:03:02.301Z,101864.72
2023-01-25T02:04:14.682Z,101870.00
2023-01-25T02:05:28.762Z,101862.07
2023-01-25T02:06:47.467Z,101870.87
2023-01-25T02:08:01.130Z,101861.17
2023-01-25T02:09:12.271Z,101863.82
2023-01-25T02:10:23.191Z,101867.37
2023-01-25T02:11:35.174Z,101859.41
2023-01-25T02:12:45.884Z,101857.66
2023-01-25T02:13:57.775Z,101855.00
2023-01-25T02:15:08.588Z,101856.78
2023-01-25T02:16:21.171Z,101847.95
2023-01-25T02:17:36.019Z,101848.81
2023-01-25T02:18:45.140Z,101851.46
2023-01-25T02:20:00.956Z,101839.14
2023-01-25T02:21:10.656Z,101836.50
2023-01-25T02:22:23.381Z,101844.43
2023-01-25T02:25:21.151Z,101835.61
2023-01-25T02:26:30.875Z,101844.42
2023-01-25T02:27:45.032Z,101847.94
2023-01-25T02:29:06.237Z,101843.55
2023-01-25T02:30:17.492Z,101846.20
2023-01-25T02:31:26.555Z,101845.32
2023-01-25T02:32:35.987Z,101838.25
2023-01-25T02:33:46.320Z,101843.55
2023-01-25T02:36:13.917Z,101830.33
2023-01-25T02:37:22.709Z,101840.02
2023-01-25T02:39:58.049Z,101840.04
2023-01-25T02:41:18.616Z,101847.09
2023-01-25T02:42:31.561Z,101839.16
2023-01-25T02:43:42.673Z,101844.44
2023-01-25T02:46:28.026Z,101833.87
2023-01-25T02:47:37.600Z,101843.56
2023-01-25T02:48:46.789Z,101846.20
2023-01-25T02:49:55.909Z,101845.30
2023-01-25T02:52:23.194Z,101840.03
2023-01-25T02:53:33.031Z,101847.09
2023-01-25T02:54:42.665Z,101847.97
2023-01-25T02:55:52.848Z,101851.48
2023-01-25T02:57:03.156Z,101850.61
2023-01-25T02:58:14.038Z,101843.55
2023-01-25T02:59:24.992Z,101837.39
2023-01-25T03:00:36.112Z,101834.73
2023-01-25T03:01:46.343Z,101831.23
2023-01-25T03:02:56.352Z,101830.33
2023-01-25T03:04:06.479Z,101832.10
2023-01-25T03:05:17.307Z,101835.62
2023-01-25T03:06:27.041Z,101832.98
2023-01-25T03:07:37.157Z,101834.73
2023-01-25T03:08:48.264Z,101835.59
2023-01-25T03:09:57.024Z,101833.86
2023-01-25T03:11:07.386Z,101833.86
2023-01-25T03:12:16.995Z,101837.36
2023-01-25T03:13:27.748Z,101827.69
2023-01-25T03:14:37.383Z,101831.20
2023-01-25T03:15:47.146Z,101832.97
2023-01-25T03:16:56.095Z,101822.40
2023-01-25T03:18:05.251Z,101834.72
2023-01-25T03:19:14.541Z,101832.08
2023-01-25T03:22:00.550Z,101831.20
2023-01-25T03:23:10.042Z,101842.66
2023-01-25T03:24:20.916Z,101841.78
2023-01-25T03:25:29.673Z,101845.33
2023-01-25T03:26:59.594Z,101857.64
2023-01-25T03:28:10.590Z,101857.63
2023-01-25T03:29:20.931Z,101850.56
2023-01-25T03:30:30.758Z,101844.41
2023-01-25T03:31:40.920Z,101843.53
2023-01-25T03:32:51.627Z,101851.47
2023-01-25T03:34:01.403Z,101853.20
2023-01-25T03:35:12.750Z,101854.11
2023-01-25T03:36:21.425Z,101847.92
2023-01-25T03:37:31.366Z,101844.41
2023-01-25T03:38:40.991Z,101844.41
2023-01-25T03:39:50.856Z,101845.28
2023-01-25T03:41:02.364Z,101847.95
2023-01-25T03:43:28.430Z,101841.80
2023-01-25T03:44:38.449Z,101849.71
2023-01-25T03:45:56.316Z,101850.61
2023-01-25T03:47:07.170Z,101846.19
2023-01-25T03:48:16.298Z,101857.64
2023-01-25T03:49:28.495Z,101850.58
2023-01-25T03:50:38.257Z,101854.13
2023-01-25T03:51:48.098Z,101854.10
2023-01-25T03:53:11.692Z,101851.48
2023-01-25T03:54:23.501Z,101855.88
2023-01-25T03:56:48.628Z,101841.80
2023-01-25T03:57:59.383Z,101854.13
2023-01-25T03:59:09.161Z,101854.13
2023-01-25T04:00:20.621Z,101854.13
2023-01-25T04:01:31.051Z,101852.35
2023-01-25T04:02:40.890Z,101848.84
2023-01-25T04:03:50.572Z,101848.83
2023-01-25T04:05:00.407Z,101855.89
2023-01-25T04:06:11.419Z,101845.31
2023-01-25T04:07:21.187Z,101840.91
2023-01-25T04:08:30.911Z,101850.61
2023-01-25T04:09:41.457Z,101843.55
2023-01-25T04:12:09.610Z,101836.52
2023-01-25T04:13:24.736Z,101846.22
2023-01-25T04:14:44.067Z,101847.08
2023-01-25T04:15:48.544Z,101844.45
2023-01-25T04:16:59.262Z,101840.93
2023-01-25T04:18:19.443Z,101846.21
2023-01-25T04:19:28.210Z,101840.04
2023-01-25T04:20:41.117Z,101842.69
2023-01-25T04:21:50.378Z,101840.91
2023-01-25T04:23:00.829Z,101843.57
2023-01-25T04:24:12.682Z,101842.67
2023-01-25T04:25:22.213Z,101841.81
2023-01-25T04:26:34.021Z,101837.37
2023-01-25T04:27:43.535Z,101841.80
2023-01-25T04:28:55.087Z,101851.46
2023-01-25T04:31:21.807Z,101847.05
2023-01-25T04:32:31.804Z,101847.02
2023-01-25T04:33:41.551Z,101852.27
2023-01-25T04:34:50.745Z,101845.22
2023-01-25T04:36:02.013Z,101848.77
2023-01-25T04:37:11.038Z,101847.89
2023-01-25T04:38:22.858Z,101853.17
2023-01-25T04:39:33.483Z,101847.02
2023-01-25T04:40:44.228Z,101842.61
2023-01-25T04:41:54.213Z,101844.38
2023-01-25T04:43:04.232Z,101842.64
2023-01-25T04:44:14.045Z,101843.51
2023-01-25T04:45:25.352Z,101840.87
2023-01-25T04:46:34.832Z,101840.87
2023-01-25T04:47:44.097Z,101844.38
2023-01-25T04:48:55.267Z,101842.64
2023-01-25T04:50:06.517Z,101841.73
2023-01-25T04:51:16.116Z,101845.28
2023-01-25T04:52:26.720Z,101850.56
2023-01-25T04:53:35.948Z,101846.15
2023-01-25T04:56:03.472Z,101845.30
2023-01-25T04:57:14.248Z,101838.22
2023-01-25T04:58:24.941Z,101847.05
2023-01-25T04:59:33.980Z,101845.28
2023-01-25T05:00:43.237Z,101844.41
2023-01-25T05:01:54.038Z,101847.92
2023-01-25T05:03:03.991Z,101847.92
2023-01-25T05:04:13.520Z,101854.11
2023-01-25T05:05:24.984Z,101851.47
2023-01-25T05:06:34.465Z,101855.85
2023-01-25T05:07:44.336Z,101851.44
2023-01-25T05:08:53.970Z,101858.50
2023-01-25T05:10:05.045Z,101858.50
2023-01-25T05:11:13.958Z,101863.78
2023-01-25T05:12:34.540Z,101852.31
2023-01-25T05:13:45.997Z,101854.08
2023-01-25T05:14:57.260Z,101859.37
2023-01-25T05:16:08.980Z,101860.23
2023-01-25T05:17:18.715Z,101855.81
2023-01-25T05:18:35.779Z,101856.69
2023-01-25T05:19:39.184Z,101856.69
2023-01-25T05:20:56.293Z,101852.31
2023-01-25T05:22:10.907Z,101852.31
2023-01-25T05:24:39.727Z,101846.15
2023-01-25T05:26:08.097Z,101850.53
2023-01-25T05:27:19.740Z,101852.31
2023-01-25T05:29:48.050Z,101842.64
2023-01-25T05:30:57.081Z,101842.64
2023-01-25T05:32:13.024Z,101843.52
2023-01-25T05:33:21.941Z,101846.16
2023-01-25T05:34:31.251Z,101847.02
2023-01-25T05:35:40.374Z,101843.51
2023-01-25T05:36:51.631Z,101837.35
2023-01-25T09:46:43.744Z,101809.69
2023-01-25T09:48:01.102Z,101806.19
2023-01-25T09:49:47.358Z,101818.58
2023-01-25T09:51:25.786Z,101811.58
2023-01-25T09:54:00.766Z,101795.91
2023-01-25T09:55:19.996Z,101803.84
2023-01-25T09:56:38.862Z,101796.78
2023-01-25T09:57:51.291Z,101792.41
2023-01-25T09:59:06.807Z,101800.33
2023-01-25T10:00:35.852Z,101798.58
2023-01-25T10:04:48.990Z,101778.33
2023-01-25T10:06:02.182Z,101785.38
2023-01-25T10:08:49.424Z,101771.29
2023-01-25T10:10:09.282Z,101773.92
2023-01-25T10:11:26.981Z,101771.27
2023-01-25T10:12:38.090Z,101773.91
2023-01-25T10:13:47.898Z,101766.88
2023-01-25T10:16:26.074Z,101756.30
2023-01-25T10:17:38.824Z,101758.94
2023-01-25T10:19:08.208Z,101757.19
2023-01-25T10:21:42.780Z,101743.95
2023-01-25T10:24:30.558Z,101744.84
2023-01-25T10:25:43.217Z,101753.64
2023-01-25T10:28:44.405Z,101743.96
2023-01-25T10:29:57.638Z,101752.78
2023-01-25T10:32:35.896Z,101735.13
2023-01-25T10:33:47.219Z,101736.90
2023-01-25T10:35:00.717Z,101731.62
2023-01-25T10:37:35.704Z,101723.67
2023-01-25T10:38:49.395Z,101727.23
2023-01-25T10:40:05.030Z,101726.34
2023-01-25T10:41:21.344Z,101730.73
2023-01-25T10:42:34.117Z,101726.33
2023-01-25T10:43:42.902Z,101723.68
2023-01-25T10:44:51.621Z,101728.08
2023-01-25T10:46:02.069Z,101734.23
2023-01-25T10:48:36.581Z,101718.33
2023-01-25T10:49:55.487Z,101720.98
2023-01-25T10:51:06.130Z,101713.06
2023-01-25T10:53:39.960Z,101716.53
2023-01-25T10:54:51.722Z,101707.77
2023-01-25T10:56:13.399Z,101707.75
2023-01-25T10:57:22.838Z,101713.03
2023-01-25T10:58:39.033Z,101713.08
2023-01-25T10:59:52.788Z,101708.68
2023-01-25T11:01:03.809Z,101702.52
2023-01-25T11:03:54.564Z,101707.77
2023-01-25T11:05:31.606Z,101706.91
2023-01-25T11:09:39.279Z,101701.58
2023-01-25T11:10:51.032Z,101700.75
2023-01-25T11:12:12.518Z,101703.36
2023-01-25T11:14:52.328Z,101695.35
2023-01-25T11:17:34.098Z,101685.69
2023-01-25T11:18:54.846Z,101688.38
2023-01-25T11:21:36.472Z,101691.91
2023-01-25T11:24:12.820Z,101686.63
2023-01-25T11:26:49.140Z,101691.91
2023-01-25T11:28:14.045Z,101690.17
2023-01-25T11:30:31.667Z,101689.30
2023-01-25T11:31:54.595Z,101695.45
2023-01-25T11:34:26.774Z,101679.57
2023-01-25T11:37:10.347Z,101681.33
2023-01-25T11:38:23.304Z,101687.52
2023-01-25T11:41:37.825Z,101678.67
2023-01-25T11:43:00.637Z,101678.71
2023-01-25T11:44:19.593Z,101676.06
2023-01-25T11:46:03.936Z,101669.02
2023-01-25T11:51:55.376Z,101661.08
2023-01-25T11:53:28.858Z,101662.84
2023-01-25T11:54:56.551Z,101662.84
2023-01-25T11:57:42.870Z,101657.50
2023-01-25T11:59:11.106Z,101664.61
2023-01-25T12:02:33.218Z,101654.84
2023-01-25T12:05:23.853Z,101659.28
2023-01-25T12:08:00.366Z,101663.72
2023-01-25T12:09:35.090Z,101664.60
2023-01-25T12:10:53.913Z,101661.94
2023-01-25T12:13:54.031Z,101651.30
2023-01-25T12:16:59.526Z,101652.20
2023-01-25T12:18:30.853Z,101653.99
2023-01-25T12:21:46.140Z,101649.58
2023-01-25T12:22:59.343Z,101654.03
2023-01-25T12:24:33.017Z,101652.27
2023-01-25T12:27:55.074Z,101642.47
2023-01-25T12:29:08.499Z,101646.94
2023-01-25T12:30:39.096Z,101649.56
2023-01-25T12:31:57.186Z,101664.55
2023-01-25T12:33:16.719Z,101659.23
2023-01-25T12:34:41.154Z,101651.27
2023-01-25T12:38:53.991Z,101644.19
2023-01-25T12:41:54.687Z,101637.18
2023-01-25T12:43:07.820Z,101643.41
2023-01-25T12:45:58.048Z,101644.27
2023-01-25T12:48:54.224Z,101650.41
2023-01-25T12:50:25.134Z,101654.87
2023-01-25T12:51:39.407Z,101655.77
2023-01-25T12:54:25.341Z,101656.63
2023-01-25T12:55:35.382Z,101650.47
2023-01-25T12:56:50.830Z,101652.24
2023-01-25T13:01:26.512Z,101631.05
2023-01-25T13:04:27.480Z,101642.45
2023-01-25T13:07:04.391Z,101637.99
2023-01-25T13:08:33.124Z,101639.79
2023-01-25T13:10:16.126Z,101640.67
2023-01-25T13:11:40.493Z,101643.31
2023-01-25T13:14:21.021Z,101635.36
2023-01-25T13:15:45.264Z,101638.98
2023-01-25T13:18:33.523Z,101631.93
2023-01-25T13:19:42.760Z,101637.27
2023-01-25T13:20:54.114Z,101634.61
2023-01-25T13:23:40.031Z,101631.05
2023-01-25T13:25:09.948Z,101629.31
2023-01-25T13:26:29.941Z,101632.81
2023-01-25T13:27:38.587Z,101622.23
2023-01-25T13:28:49.966Z,101619.59
2023-01-25T13:33:00.743Z,101620.37
2023-01-25T13:35:48.291Z,101622.08
2023-01-25T13:36:57.409Z,101620.39
2023-01-25T13:39:53.609Z,101608.86
2023-01-25T13:41:17.396Z,101622.12
2023-01-25T13:42:30.145Z,101614.17
2023-01-25T13:43:42.337Z,101610.63
2023-01-25T18:09:40.945Z,101530.84
2023-01-25T18:10:50.337Z,101525.56
2023-01-25T18:11:59.472Z,101533.51
2023-01-25T18:13:09.446Z,101521.20
2023-01-25T18:14:19.682Z,101522.09
2023-01-25T18:15:28.831Z,101534.39
2023-01-25T18:16:39.489Z,101522.91
2023-01-25T18:17:48.323Z,101526.39
2023-01-25T18:19:00.067Z,101530.75
2023-01-25T18:21:31.184Z,101525.33
2023-01-25T18:24:02.421Z,101522.64
2023-01-25T18:26:46.368Z,101528.78
2023-01-25T18:27:56.921Z,101533.23
2023-01-25T18:29:12.476Z,101539.41
2023-01-25T18:30:31.506Z,101532.36
2023-01-25T18:31:40.655Z,101534.13
2023-01-25T18:32:49.344Z,101533.23
2023-01-25T18:33:58.736Z,101535.86
2023-01-25T18:35:09.141Z,101535.01
2023-01-25T18:36:19.692Z,101536.75
2023-01-25T18:37:30.093Z,101539.39
2023-01-25T18:38:38.956Z,101542.94
2023-01-25T18:41:09.848Z,101532.33
2023-01-25T18:42:20.134Z,101528.89
2023-01-25T18:44:45.581Z,101526.20
2023-01-25T18:47:13.043Z,101530.61
2023-01-25T18:49:41.793Z,101528.89
2023-01-25T18:50:51.107Z,101528.88
2023-01-25T18:52:10.881Z,101530.62
2023-01-25T18:53:10.526Z,101524.47
2023-01-25T18:54:19.383Z,101522.70
2023-01-25T18:56:42.914Z,101518.21
2023-01-25T18:59:26.601Z,101518.19
2023-01-25T19:01:53.673Z,101505.91
2023-01-25T19:04:18.116Z,101509.41
2023-01-25T19:05:29.397Z,101517.39
2023-01-25T19:06:38.244Z,101515.62
2023-01-25T19:07:46.923Z,101512.96
2023-01-25T19:08:56.732Z,101516.48
2023-01-25T19:10:06.038Z,101513.84
2023-01-25T19:11:17.007Z,101526.20
2023-01-25T19:12:25.744Z,101517.39
2023-01-25T19:13:36.924Z,101520.96
2023-01-25T19:14:46.695Z,101520.98
2023-01-25T19:17:26.123Z,101510.45
2023-01-25T19:18:37.770Z,101516.69
2023-01-25T19:19:46.317Z,101510.55
2023-01-25T19:20:54.994Z,101509.68
2023-01-25T19:22:05.037Z,101509.71
2023-01-25T19:23:13.660Z,101517.65
2023-01-25T19:24:22.454Z,101515.01
2023-01-25T19:25:31.259Z,101512.37
2023-01-25T19:26:41.390Z,101515.87
2023-01-25T19:27:50.599Z,101517.65
2023-01-25T19:29:00.039Z,101516.75
2023-01-25T19:31:27.237Z,101513.20
2023-01-25T19:32:36.598Z,101513.21
2023-01-25T19:33:46.877Z,101507.92
2023-01-25T19:34:55.995Z,101512.33
2023-01-25T19:36:08.501Z,101514.97
2023-01-25T19:37:18.326Z,101511.45
2023-01-25T19:38:28.009Z,101509.69
2023-01-25T19:39:36.808Z,101508.80
2023-01-25T19:40:45.517Z,101508.77
2023-01-25T19:41:54.845Z,101506.14
2023-01-25T19:43:03.573Z,101498.20
2023-01-25T19:44:14.005Z,101497.31
2023-01-25T19:45:22.529Z,101505.20
2023-01-25T19:46:35.066Z,101507.84
2023-01-25T19:47:43.814Z,101497.26
2023-01-25T19:48:54.192Z,101498.13
2023-01-25T19:51:21.860Z,101491.04
2023-01-25T19:52:31.447Z,101492.87
2023-01-25T19:53:43.772Z,101492.88
2023-01-25T19:54:52.394Z,101491.98
2023-01-25T19:56:03.127Z,101491.98
2023-01-25T19:57:12.201Z,101492.88
2023-01-25T19:59:39.565Z,101494.58
2023-01-25T20:00:49.086Z,101490.25
2023-01-25T20:01:57.660Z,101492.88
2023-01-25T20:03:15.867Z,101488.52
2023-01-25T20:04:20.380Z,101489.40
2023-01-25T20:05:29.032Z,101487.61
2023-01-25T20:06:38.038Z,101489.39
2023-01-25T20:07:47.722Z,101486.77
2023-01-25T20:08:57.488Z,101492.03
2023-01-25T20:10:07.323Z,101492.94
2023-01-25T20:11:19.665Z,101492.05
2023-01-25T20:12:28.786Z,101490.27
2023-01-25T20:13:38.898Z,101491.16
2023-01-25T20:14:48.894Z,101486.75
2023-01-25T20:17:36.100Z,101485.00
2023-01-25T20:18:49.631Z,101492.95
2023-01-25T20:19:58.276Z,101492.08
2023-01-25T20:21:09.999Z,101487.67
2023-01-25T20:22:18.717Z,101496.47
2023-01-25T20:23:33.086Z,101497.38
2023-01-25T20:24:42.187Z,101497.36
2023-01-25T20:26:00.149Z,101502.64
2023-01-25T20:27:09.688Z,101495.57
2023-01-25T20:28:18.200Z,101499.97
2023-01-25T20:29:29.446Z,101497.32
2023-01-25T20:30:38.283Z,101501.75
2023-01-25T20:31:47.286Z,101502.66
2023-01-25T20:32:56.448Z,101499.13
2023-01-25T20:34:14.326Z,101494.72
2023-01-25T20:35:24.781Z,101494.70
2023-01-25T20:36:35.770Z,101496.46
2023-01-25T20:37:44.925Z,101494.69
2023-01-25T20:40:12.937Z,101491.13
2023-01-25T20:41:22.962Z,101492.95
2023-01-25T20:42:32.302Z,101493.84
2023-01-25T20:43:52.877Z,101499.16
2023-01-25T20:45:01.958Z,101492.98
2023-01-25T20:46:10.681Z,101494.75
2023-01-25T20:47:19.231Z,101490.34
2023-01-25T20:48:31.828Z,101493.86
2023-01-25T20:49:41.771Z,101496.52
2023-01-25T20:51:04.259Z,101497.39
2023-01-25T20:52:13.545Z,101496.52
2023-01-25T20:53:22.448Z,101497.39
2023-01-25T20:54:31.412Z,101496.54
2023-01-25T20:55:40.751Z,101490.36
2023-01-25T20:56:50.928Z,101491.25
2023-01-25T20:59:16.277Z,101485.98
2023-01-25T21:00:26.282Z,101493.05
2023-01-25T21:02:52.849Z,101489.49
2023-01-25T21:04:02.667Z,101493.90
2023-01-25T21:05:12.949Z,101496.53
2023-01-25T21:06:23.437Z,101496.53
2023-01-25T21:07:32.065Z,101485.09
2023-01-25T21:08:41.162Z,101481.56
2023-01-25T21:09:51.003Z,101478.92
2023-01-25T21:11:00.762Z,101482.45
2023-01-25T21:12:10.175Z,101480.66
2023-01-25T21:13:20.198Z,101487.70
2023-01-25T21:14:29.180Z,101479.77
2023-01-25T21:15:38.955Z,101479.77
2023-01-25T21:16:48.137Z,101483.30
2023-01-25T21:17:56.678Z,101477.13
2023-01-25T21:19:06.801Z,101471.87
2023-01-25T21:20:16.388Z,101471.88
2023-01-25T21:21:31.603Z,101467.45
2023-01-25T21:23:59.462Z,101459.51
2023-01-25T21:25:09.965Z,101463.08
2023-01-25T21:26:27.408Z,101474.50
2023-01-25T21:27:36.433Z,101469.24
2023-01-25T21:28:46.783Z,101473.63
2023-01-25T21:29:56.738Z,101470.10
2023-01-25T21:32:30.136Z,101460.41
2023-01-25T21:33:39.750Z,101458.67
2023-01-25T21:34:49.621Z,101458.66
2023-01-25T21:36:02.734Z,101458.64
2023-01-25T21:37:12.551Z,101455.13
2023-01-25T21:38:21.356Z,101454.23
2023-01-25T21:39:31.440Z,101457.77
2023-01-25T21:40:40.523Z,101459.53
2023-01-25T21:41:49.517Z,101452.50
2023-01-25T21:42:59.384Z,101448.97
2023-01-25T21:44:27.474Z,101446.31
2023-01-25T21:47:29.820Z,101440.08
2023-01-25T21:48:42.427Z,101440.14
2023-01-25T21:50:09.531Z,101448.08
2023-01-25T21:51:39.285Z,101444.55
2023-01-25T21:52:47.935Z,101431.33
2023-01-25T21:54:01.032Z,101433.97
2023-01-25T21:55:09.842Z,101428.69
2023-01-25T21:56:18.360Z,101422.51
2023-01-25T21:57:28.456Z,101421.61
2023-01-25T22:00:15.363Z,101411.00
2023-01-25T22:01:25.035Z,101419.84
2023-01-25T22:02:34.884Z,101424.27
2023-01-25T22:03:49.277Z,101425.15
2023-01-25T22:04:57.928Z,101418.12
2023-01-25T22:06:08.145Z,101416.36
2023-01-25T22:07:17.812Z,101419.07
2023-01-25T22:08:29.333Z,101419.07
2023-01-25T22:09:39.969Z,101418.20
2023-01-25T22:10:48.826Z,101420.88
2023-01-25T22:11:58.608Z,101416.50
2023-01-25T22:13:08.277Z,101418.28
2023-01-25T22:14:26.163Z,101413.86
2023-01-25T22:15:35.230Z,101419.13
2023-01-25T22:16:45.392Z,101416.48
2023-01-25T22:17:54.993Z,101410.33
2023-01-25T22:19:04.320Z,101417.34
2023-01-25T22:20:14.221Z,101412.07
2023-01-25T22:21:27.789Z,101406.77
2023-01-25T22:22:37.511Z,101418.20
2023-01-25T22:23:47.392Z,101412.04
2023-01-25T22:24:56.255Z,101408.56
2023-01-25T22:26:07.462Z,101413.86
2023-01-25T22:27:38.773Z,101410.35
2023-01-25T22:28:50.520Z,101412.99
2023-01-25T22:29:59.064Z,101416.50
2023-01-25T22:31:08.039Z,101412.13
2023-01-25T22:32:17.808Z,101414.77
2023-01-25T22:33:27.008Z,101417.41
2023-01-25T22:35:52.509Z,101405.09
2023-01-25T22:37:02.279Z,101420.94
2023-01-25T22:38:10.847Z,101415.66
2023-01-25T22:39:20.106Z,101427.97
2023-01-25T22:40:29.438Z,101413.89
2023-01-25T22:41:38.862Z,101419.14
2023-01-25T22:44:03.860Z,101416.47
2023-01-25T22:45:13.085Z,101419.97
2023-01-25T22:47:41.331Z,101404.95
2023-01-25T22:48:53.309Z,101405.87
2023-01-25T22:50:02.468Z,101405.00
2023-01-25T22:52:40.413Z,101400.53
2023-01-25T22:55:04.417Z,101399.62
2023-01-25T22:56:20.652Z,101394.38
2023-01-25T22:57:30.165Z,101391.72
2023-01-25T22:58:41.924Z,101393.50
2023-01-25T22:59:51.769Z,101389.95
2023-01-25T23:02:17.999Z,101391.69
2023-01-25T23:03:27.699Z,101387.34
2023-01-25T23:04:37.395Z,101387.33
2023-01-25T23:05:46.416Z,101384.66
2023-01-25T23:06:58.071Z,101389.94
2023-01-25T23:08:07.624Z,101390.83
2023-01-25T23:09:17.425Z,101384.66
2023-01-25T23:11:42.219Z,101381.91
2023-01-25T23:12:54.585Z,101382.85
2023-01-25T23:14:25.176Z,101385.55
2023-01-25T23:15:34.682Z,101397.98
2023-01-25T23:16:44.180Z,101392.72
2023-01-25T23:18:11.302Z,101386.56
2023-01-25T23:19:20.760Z,101386.56
2023-01-25T23:20:34.809Z,101386.55
2023-01-25T23:21:45.548Z,101386.51
2023-01-25T23:22:55.304Z,101393.53
2023-01-25T23:24:05.284Z,101387.38
2023-01-25T23:26:40.572Z,101378.55
2023-01-25T23:27:51.129Z,101383.84
2023-01-25T23:29:00.273Z,101382.11
2023-01-25T23:30:12.324Z,101379.48
2023-01-25T23:32:42.642Z,101374.22
2023-01-25T23:33:52.681Z,101379.58
2023-01-25T23:35:02.466Z,101381.31
2023-01-25T23:37:33.417Z,101372.49
2023-01-25T23:38:44.644Z,101376.92
2023-01-25T23:39:53.280Z,101376.06
2023-01-25T23:42:18.226Z,101374.29
2023-01-25T23:43:27.961Z,101378.69
2023-01-25T23:44:37.458Z,101375.14
2023-01-25T23:45:46.393Z,101371.61
2023-01-25T23:46:56.057Z,101370.73
2023-01-25T23:48:06.067Z,101379.53
2023-01-25T23:50:30.490Z,101375.09
2023-01-25T23:51:39.193Z,101373.35
2023-01-25T23:52:47.741Z,101372.51
2023-01-25T23:53:58.048Z,101376.04
2023-01-25T23:56:24.072Z,101375.12
2023-01-25T23:57:33.213Z,101371.60
2023-01-25T23:58:42.210Z,101376.88
2023-01-25T23:59:51.184Z,101376.00
